Time;durP1;ratioP1;P1;durP2;ratioP2;P2;SDS_P1;SDS_P2;PMS_P1;PMS_P2;Temp;Humidity;BMP_temperature;BMP_pressure;BME280_temperature;BME280_humidity;BME280_pressure;Samples;Min_cycle;Max_cycle;Signal;HPM_P1;HPM_P2
2022/07/06 00:01:18;;;;;;;6.05;2.10;;;13.90;99.90;;;;;;4975006;28;20042;-94
2022/07/06 00:03:44;;;;;;;8.27;2.30;;;14.00;99.90;;;;;;4988866;28;20113;-93
2022/07/06 00:06:10;;;;;;;6.70;2.05;;;14.00;99.90;;;;;;4977352;28;21336;-94
2022/07/06 00:08:36;;;;;;;11.35;2.63;;;14.00;99.90;;;;;;5010996;28;20044;-93
2022/07/06 00:11:02;;;;;;;6.38;2.15;;;14.00;99.90;;;;;;4991627;28;20046;-93
2022/07/06 00:13:28;;;;;;;5.88;2.38;;;14.00;99.90;;;;;;5012207;28;20041;-92
2022/07/06 00:15:53;;;;;;;7.93;2.30;;;14.10;99.90;;;;;;5009311;28;20127;-93
2022/07/06 00:18:19;;;;;;;7.40;2.10;;;14.10;99.90;;;;;;5011472;28;20056;-93
2022/07/06 00:20:45;;;;;;;6.18;2.10;;;14.10;99.90;;;;;;4993643;28;20046;-93
2022/07/06 00:23:11;;;;;;;8.65;2.60;;;14.10;99.90;;;;;;4993966;28;20042;-94
2022/07/06 00:25:36;;;;;;;8.50;2.88;;;14.10;99.90;;;;;;5009619;28;20415;-93
2022/07/06 00:28:03;;;;;;;6.97;2.30;;;14.20;99.90;;;;;;5007447;28;20045;-94
2022/07/06 00:30:28;;;;;;;8.95;2.33;;;14.20;99.90;;;;;;4992562;28;20049;-93
2022/07/06 00:32:54;;;;;;;7.13;2.38;;;14.20;99.90;;;;;;4989854;28;20503;-94
2022/07/06 00:35:20;;;;;;;7.90;2.53;;;14.20;99.90;;;;;;4990036;28;20230;-93
2022/07/06 00:37:45;;;;;;;7.45;2.40;;;14.20;99.90;;;;;;4993941;28;20046;-93
2022/07/06 00:40:11;;;;;;;7.70;2.33;;;14.20;99.90;;;;;;5010802;28;20132;-93
2022/07/06 00:42:45;;;;;;;6.55;1.90;;;14.20;99.90;;;;;;4991964;28;20068;-94
2022/07/06 00:45:11;;;;;;;8.07;2.53;;;14.20;99.90;;;;;;4993761;28;20077;-94
2022/07/06 00:47:38;;;;;;;7.63;2.85;;;14.20;99.90;;;;;;5010634;28;20092;-94
2022/07/06 00:50:13;;;;;;;6.55;2.28;;;14.20;99.90;;;;;;4991242;28;20462;-94
2022/07/06 00:52:42;;;;;;;5.63;2.20;;;14.20;99.90;;;;;;4993937;28;20042;-94
2022/07/06 00:55:09;;;;;;;6.95;2.30;;;14.20;99.90;;;;;;4992738;28;20041;-94
2022/07/06 00:57:36;;;;;;;6.82;2.25;;;14.20;99.90;;;;;;5008638;28;20100;-94
2022/07/06 01:00:06;;;;;;;6.70;2.13;;;14.20;99.90;;;;;;5004221;28;20056;-94
2022/07/06 01:02:33;;;;;;;6.70;2.10;;;14.20;99.90;;;;;;5009270;28;20082;-94
2022/07/06 01:04:58;;;;;;;5.78;2.10;;;14.20;99.90;;;;;;4992646;28;20305;-94
2022/07/06 01:07:24;;;;;;;6.72;2.25;;;14.20;99.90;;;;;;4993875;28;20046;-94
2022/07/06 01:09:50;;;;;;;6.53;2.50;;;14.20;99.90;;;;;;5009613;28;20050;-93
2022/07/06 01:12:16;;;;;;;6.28;2.65;;;14.20;99.90;;;;;;4992816;28;20040;-93
2022/07/06 01:14:42;;;;;;;4.78;2.20;;;14.20;99.90;;;;;;4972784;28;20725;-94
2022/07/06 01:17:09;;;;;;;9.65;2.58;;;14.20;99.90;;;;;;5001621;28;20132;-94
2022/07/06 01:19:34;;;;;;;5.22;2.10;;;14.20;99.90;;;;;;4985686;28;20506;-94
2022/07/06 01:22:00;;;;;;;5.78;2.40;;;14.20;99.90;;;;;;5005420;28;20042;-94
2022/07/06 01:24:26;;;;;;;5.55;2.20;;;14.20;99.90;;;;;;4996025;28;20399;-94
2022/07/06 01:26:52;;;;;;;9.00;2.80;;;14.20;99.90;;;;;;5008664;28;20038;-95
2022/07/06 01:29:18;;;;;;;6.20;2.45;;;14.10;99.90;;;;;;4993125;28;20079;-93
2022/07/06 01:31:48;;;;;;;7.47;2.60;;;14.10;99.90;;;;;;4986989;28;20053;-93
2022/07/06 01:34:15;;;;;;;7.30;2.30;;;14.10;99.90;;;;;;4972523;28;20193;-93
2022/07/06 01:36:41;;;;;;;7.72;2.72;;;14.10;99.90;;;;;;4989139;28;20038;-93
2022/07/06 01:39:08;;;;;;;6.40;2.30;;;14.10;99.90;;;;;;4967924;28;20389;-93
2022/07/06 01:41:34;;;;;;;6.40;2.38;;;14.10;99.90;;;;;;4973168;28;20042;-93
2022/07/06 01:44:00;;;;;;;5.97;2.22;;;14.00;99.90;;;;;;4971731;28;20050;-93
2022/07/06 01:46:26;;;;;;;7.22;2.55;;;14.00;99.90;;;;;;4989080;28;20108;-94
2022/07/06 01:48:52;;;;;;;7.50;2.53;;;14.00;99.90;;;;;;4988038;28;20495;-93
2022/07/06 01:51:17;;;;;;;7.35;2.40;;;14.00;99.90;;;;;;4990430;28;20038;-93
2022/07/06 01:53:43;;;;;;;6.38;2.58;;;14.00;99.90;;;;;;4987444;28;20195;-93
2022/07/06 01:56:10;;;;;;;6.78;3.10;;;14.00;99.90;;;;;;4989111;28;20435;-93
2022/07/06 01:58:36;;;;;;;7.32;2.75;;;14.00;99.90;;;;;;4986489;28;20066;-93
2022/07/06 02:01:10;;;;;;;6.50;2.35;;;14.00;99.90;;;;;;4987025;28;20043;-93
2022/07/06 02:03:37;;;;;;;7.63;2.70;;;14.00;99.90;;;;;;4992267;28;20046;-94
2022/07/06 02:06:04;;;;;;;5.57;2.33;;;14.00;99.90;;;;;;4975984;28;20038;-93
2022/07/06 02:08:29;;;;;;;7.88;2.38;;;14.00;99.90;;;;;;4976351;28;20080;-93
2022/07/06 02:10:55;;;;;;;5.47;2.30;;;14.00;99.90;;;;;;4993025;28;20045;-94
2022/07/06 02:13:21;;;;;;;5.75;2.30;;;14.00;99.90;;;;;;4993441;28;20046;-94
2022/07/06 02:15:46;;;;;;;5.25;2.60;;;13.90;99.90;;;;;;4992223;28;20035;-95
2022/07/06 02:18:12;;;;;;;7.75;2.90;;;13.90;99.90;;;;;;4974692;28;20411;-93
2022/07/06 02:20:38;;;;;;;7.32;2.45;;;13.90;99.90;;;;;;4993660;28;20389;-94
2022/07/06 02:23:03;;;;;;;6.78;2.42;;;14.00;99.90;;;;;;4991614;28;20458;-94
2022/07/06 02:25:29;;;;;;;8.23;2.42;;;13.90;99.90;;;;;;4992238;28;20046;-94
2022/07/06 02:27:55;;;;;;;6.13;2.33;;;13.90;99.90;;;;;;4988340;28;20074;-94
2022/07/06 02:30:20;;;;;;;7.13;2.45;;;13.90;99.90;;;;;;4991275;28;20058;-94
2022/07/06 02:32:46;;;;;;;8.80;2.88;;;13.90;99.90;;;;;;4961959;28;20059;-93
2022/07/06 02:35:12;;;;;;;5.43;2.40;;;13.90;99.90;;;;;;4977372;28;20049;-94
2022/07/06 02:37:38;;;;;;;7.47;2.95;;;13.90;99.90;;;;;;4991771;28;20070;-94
2022/07/06 02:40:05;;;;;;;7.82;2.45;;;13.90;99.90;;;;;;5007012;28;20318;-94
2022/07/06 02:42:30;;;;;;;7.85;2.30;;;14.00;99.90;;;;;;4976839;28;20049;-93
2022/07/06 02:44:56;;;;;;;7.95;2.38;;;13.90;99.90;;;;;;4990837;28;20046;-94
2022/07/06 02:47:21;;;;;;;6.03;2.20;;;14.00;99.90;;;;;;4976713;28;20046;-94
2022/07/06 02:49:47;;;;;;;5.38;2.03;;;13.90;99.90;;;;;;4992869;28;20038;-95
2022/07/06 02:52:13;;;;;;;6.38;2.03;;;13.90;99.90;;;;;;4989013;28;20035;-94
2022/07/06 02:54:38;;;;;;;7.20;2.50;;;13.90;99.90;;;;;;4991399;28;20045;-94
2022/07/06 02:57:04;;;;;;;7.47;2.58;;;14.00;99.90;;;;;;4991555;28;20062;-93
2022/07/06 02:59:29;;;;;;;6.50;2.63;;;13.90;99.90;;;;;;4990590;28;20053;-93
2022/07/06 03:01:55;;;;;;;8.00;2.30;;;13.90;99.90;;;;;;4985279;28;20046;-94
2022/07/06 03:04:20;;;;;;;7.93;2.33;;;13.90;99.90;;;;;;4991344;28;20046;-94
2022/07/06 03:06:46;;;;;;;7.72;2.53;;;14.00;99.90;;;;;;4991302;28;20070;-94
2022/07/06 03:09:12;;;;;;;6.70;2.30;;;14.00;99.90;;;;;;4993013;28;20045;-94
2022/07/06 03:11:37;;;;;;;6.53;2.38;;;14.00;99.90;;;;;;4991442;28;20097;-94
2022/07/06 03:14:04;;;;;;;7.72;2.53;;;14.00;99.90;;;;;;4992787;28;20411;-95
2022/07/06 03:16:30;;;;;;;6.10;2.10;;;14.00;99.90;;;;;;4993326;28;20061;-95
2022/07/06 03:18:56;;;;;;;6.63;2.17;;;14.00;99.90;;;;;;4973447;28;20053;-93
2022/07/06 03:21:22;;;;;;;6.50;2.08;;;14.00;99.90;;;;;;4974834;28;20038;-94
2022/07/06 03:23:47;;;;;;;8.48;2.30;;;14.00;99.90;;;;;;4991819;28;20037;-94
2022/07/06 03:26:13;;;;;;;6.68;2.13;;;14.10;99.90;;;;;;4983564;28;20039;-93
2022/07/06 03:28:38;;;;;;;6.25;1.98;;;14.10;99.90;;;;;;4971807;28;20054;-93
2022/07/06 03:31:04;;;;;;;6.28;2.13;;;14.10;99.90;;;;;;4988041;28;20046;-94
2022/07/06 03:33:29;;;;;;;8.32;2.08;;;14.10;99.90;;;;;;4995045;28;20108;-94
2022/07/06 03:35:55;;;;;;;6.88;2.10;;;14.10;99.90;;;;;;5012391;28;20040;-94
2022/07/06 03:38:21;;;;;;;8.68;2.72;;;14.10;99.90;;;;;;4993154;28;20046;-93
2022/07/06 03:40:46;;;;;;;6.05;1.80;;;14.20;99.90;;;;;;4994104;28;20060;-94
2022/07/06 03:43:12;;;;;;;6.70;1.75;;;14.20;99.90;;;;;;4995420;28;20046;-94
2022/07/06 03:45:38;;;;;;;5.90;1.70;;;14.20;99.90;;;;;;4994382;28;20108;-94
2022/07/06 03:48:04;;;;;;;4.72;1.70;;;14.20;99.90;;;;;;4994559;28;20821;-94
2022/07/06 03:50:29;;;;;;;6.35;1.70;;;14.30;99.90;;;;;;5009473;28;20516;-94
2022/07/06 03:52:55;;;;;;;6.25;1.77;;;14.30;99.90;;;;;;4994110;28;20046;-94
2022/07/06 03:55:20;;;;;;;5.80;1.92;;;14.20;99.90;;;;;;4994351;28;20049;-94
2022/07/06 03:57:46;;;;;;;6.32;1.73;;;14.30;99.90;;;;;;4991392;28;20156;-94
2022/07/06 04:00:12;;;;;;;5.32;1.88;;;14.30;99.90;;;;;;4992814;28;20042;-94
2022/07/06 04:02:38;;;;;;;6.30;1.70;;;14.30;99.90;;;;;;4989764;28;20475;-94
2022/07/06 04:05:04;;;;;;;6.20;1.70;;;14.40;99.90;;;;;;4992154;28;20069;-94
2022/07/06 04:07:30;;;;;;;4.80;1.60;;;14.40;99.90;;;;;;4994688;28;20054;-94
2022/07/06 04:09:55;;;;;;;4.57;1.70;;;14.40;99.90;;;;;;5008719;28;20435;-93
2022/07/06 04:12:21;;;;;;;5.00;1.67;;;14.50;99.90;;;;;;4994989;28;20077;-94
2022/07/06 04:14:46;;;;;;;5.80;1.80;;;14.50;99.90;;;;;;4992859;28;20045;-94
2022/07/06 04:19:56;;;;;;;5.47;1.70;;;14.50;99.90;;;;;;4993426;28;20084;-94
2022/07/06 04:22:22;;;;;;;5.72;1.58;;;14.60;99.90;;;;;;5010286;28;20109;-93
2022/07/06 04:24:47;;;;;;;6.45;2.00;;;14.60;99.90;;;;;;4992835;28;20042;-93
2022/07/06 04:27:13;;;;;;;6.10;1.60;;;14.70;99.90;;;;;;5011028;28;20045;-93
2022/07/06 04:29:38;;;;;;;6.20;1.60;;;14.70;99.90;;;;;;4991384;28;20050;-94
2022/07/06 04:32:04;;;;;;;6.85;1.70;;;14.90;99.90;;;;;;5010849;28;20302;-93
2022/07/06 04:34:30;;;;;;;5.55;1.70;;;14.90;99.90;;;;;;4977736;28;20054;-94
2022/07/06 04:36:55;;;;;;;5.55;1.55;;;15.00;99.90;;;;;;4988321;28;20037;-93
2022/07/06 04:39:21;;;;;;;5.97;1.77;;;15.00;99.90;;;;;;4994534;28;20042;-93
2022/07/06 04:41:46;;;;;;;7.05;1.70;;;15.00;99.90;;;;;;4976062;28;20050;-93
2022/07/06 04:44:12;;;;;;;5.78;1.58;;;15.00;99.90;;;;;;5008392;28;20129;-93
2022/07/06 04:46:37;;;;;;;6.43;2.00;;;15.10;99.90;;;;;;5008635;28;20037;-92
2022/07/06 04:49:03;;;;;;;4.07;1.50;;;15.10;99.90;;;;;;4990405;28;20072;-94
2022/07/06 04:51:28;;;;;;;5.55;1.67;;;15.00;99.90;;;;;;4975488;28;20037;-93
2022/07/06 04:53:54;;;;;;;3.83;1.50;;;15.00;99.90;;;;;;5008398;28;20041;-93
2022/07/06 04:56:19;;;;;;;7.85;2.00;;;15.00;99.90;;;;;;4992024;28;20074;-92
2022/07/06 04:58:45;;;;;;;5.82;1.70;;;15.00;99.90;;;;;;4991062;28;20049;-93
2022/07/06 05:01:10;;;;;;;6.07;1.75;;;15.00;99.90;;;;;;4991465;28;20045;-93
2022/07/06 05:03:40;;;;;;;6.63;1.80;;;15.00;99.90;;;;;;4992940;28;20403;-89
2022/07/06 05:06:06;;;;;;;4.78;1.75;;;15.00;99.90;;;;;;4990512;28;20042;-89
2022/07/06 05:08:31;;;;;;;6.35;1.60;;;15.10;99.90;;;;;;4975552;28;20045;-90
2022/07/06 05:10:57;;;;;;;5.07;1.40;;;15.10;99.90;;;;;;4970118;28;20498;-90
2022/07/06 05:13:22;;;;;;;5.50;1.40;;;15.10;99.90;;;;;;5003961;28;20034;-90
2022/07/06 05:15:48;;;;;;;5.45;1.60;;;15.20;99.90;;;;;;5006513;28;20038;-90
2022/07/06 05:18:14;;;;;;;7.22;1.48;;;15.20;99.90;;;;;;4989792;28;20101;-90
2022/07/06 05:20:39;;;;;;;6.50;1.40;;;15.30;99.90;;;;;;4981916;28;20042;-94
2022/07/06 05:23:05;;;;;;;5.95;1.60;;;15.40;99.90;;;;;;4972385;28;20395;-93
2022/07/06 05:25:32;;;;;;;5.18;1.15;;;15.50;99.90;;;;;;4971900;28;20034;-90
2022/07/06 05:27:58;;;;;;;8.10;1.40;;;15.50;99.90;;;;;;5004791;28;20443;-90
2022/07/06 05:30:24;;;;;;;3.25;1.00;;;15.60;99.90;;;;;;4990152;28;20430;-91
2022/07/06 05:32:49;;;;;;;6.25;1.20;;;15.60;99.90;;;;;;4982488;28;20055;-89
2022/07/06 05:35:16;;;;;;;4.70;1.10;;;15.60;99.90;;;;;;4992348;28;20498;-89
2022/07/06 05:37:41;;;;;;;6.50;1.58;;;15.70;99.90;;;;;;4991239;28;20126;-92
2022/07/06 05:40:07;;;;;;;5.22;1.20;;;15.80;99.90;;;;;;4975156;28;20140;-91
2022/07/06 05:42:33;;;;;;;7.82;1.35;;;15.80;99.90;;;;;;5009709;28;20048;-91
2022/07/06 05:44:59;;;;;;;6.97;1.23;;;15.80;99.90;;;;;;4990389;28;20069;-90
2022/07/06 05:50:11;;;;;;;4.80;1.10;;;15.80;99.90;;;;;;5000312;28;20052;-90
2022/07/06 05:52:37;;;;;;;4.78;1.10;;;15.80;99.90;;;;;;4991175;28;20497;-90
2022/07/06 05:55:03;;;;;;;5.18;1.02;;;15.80;99.90;;;;;;4987479;28;20045;-89
2022/07/06 05:57:29;;;;;;;5.50;1.33;;;15.90;99.90;;;;;;5011384;28;20768;-92
2022/07/06 05:59:54;;;;;;;7.03;1.48;;;15.90;99.90;;;;;;5004718;28;20046;-91
2022/07/06 06:02:20;;;;;;;5.63;1.08;;;15.90;99.90;;;;;;5005533;28;20042;-88
2022/07/06 06:04:45;;;;;;;5.97;1.23;;;15.90;99.90;;;;;;5004491;28;20080;-88
2022/07/06 06:07:11;;;;;;;5.50;1.20;;;16.00;99.90;;;;;;5008321;28;20541;-88
2022/07/06 06:09:36;;;;;;;8.43;1.10;;;16.00;99.90;;;;;;5003250;28;20041;-86
2022/07/06 06:12:02;;;;;;;7.88;1.40;;;16.00;99.90;;;;;;5005754;28;20076;-86
2022/07/06 06:14:28;;;;;;;4.65;1.00;;;16.00;99.90;;;;;;5005762;28;20222;-87
2022/07/06 06:16:53;;;;;;;4.95;1.08;;;16.10;99.90;;;;;;4982076;28;20041;-88
2022/07/06 06:19:19;;;;;;;4.80;0.90;;;16.10;99.90;;;;;;5001990;28;20038;-90
2022/07/06 06:21:44;;;;;;;3.83;0.80;;;16.10;99.90;;;;;;4989998;28;20046;-87
2022/07/06 06:24:10;;;;;;;4.95;1.08;;;16.10;99.90;;;;;;4989864;28;20079;-86
2022/07/06 06:26:35;;;;;;;6.45;1.10;;;16.10;99.90;;;;;;4991419;28;20521;-85
2022/07/06 06:29:01;;;;;;;5.78;0.90;;;16.10;99.90;;;;;;4983104;28;20132;-86
2022/07/06 06:31:27;;;;;;;4.20;0.95;;;16.00;99.90;;;;;;4967155;28;20384;-89
2022/07/06 06:33:53;;;;;;;4.95;1.00;;;16.00;99.90;;;;;;4984862;28;20042;-92
2022/07/06 06:36:18;;;;;;;4.90;0.80;;;16.10;99.90;;;;;;4987599;28;20057;-90
2022/07/06 06:38:44;;;;;;;3.22;0.85;;;16.00;99.90;;;;;;4986076;28;20042;-88
2022/07/06 06:41:10;;;;;;;3.65;0.90;;;16.10;99.90;;;;;;4984637;28;20086;-90
2022/07/06 06:43:36;;;;;;;4.63;0.85;;;16.00;99.90;;;;;;4988117;28;20125;-88
2022/07/06 06:46:02;;;;;;;4.82;1.00;;;16.00;99.90;;;;;;4986050;28;20541;-87
2022/07/06 06:48:27;;;;;;;4.50;1.05;;;16.00;99.90;;;;;;4987589;28;20057;-88
2022/07/06 06:50:53;;;;;;;3.05;1.00;;;16.00;99.90;;;;;;4956357;28;20392;-88
2022/07/06 06:53:18;;;;;;;4.03;1.10;;;16.10;99.90;;;;;;4958555;28;20643;-88
2022/07/06 06:55:44;;;;;;;4.45;0.98;;;16.10;99.90;;;;;;4990366;28;20041;-88
2022/07/06 06:58:10;;;;;;;6.03;1.00;;;16.20;99.90;;;;;;4989584;28;20039;-88
2022/07/06 07:00:35;;;;;;;6.97;1.20;;;16.20;99.90;;;;;;4990890;28;20096;-88
2022/07/06 07:03:01;;;;;;;4.15;0.90;;;16.30;99.90;;;;;;4989476;28;20050;-86
2022/07/06 07:05:26;;;;;;;5.22;1.05;;;16.40;99.90;;;;;;4990091;28;20054;-86
2022/07/06 07:07:52;;;;;;;7.05;1.20;;;16.50;99.90;;;;;;4989474;28;20030;-87
2022/07/06 07:10:17;;;;;;;5.07;1.00;;;16.60;99.90;;;;;;4991230;28;20081;-89
2022/07/06 07:12:47;;;;;;;5.55;1.10;;;16.70;99.90;;;;;;4991351;28;20117;-89
2022/07/06 07:15:13;;;;;;;5.55;1.00;;;16.60;99.90;;;;;;4987716;28;20482;-85
2022/07/06 07:17:39;;;;;;;5.75;1.00;;;16.60;99.90;;;;;;4988019;28;20092;-87
2022/07/06 07:20:06;;;;;;;4.93;1.00;;;16.50;99.90;;;;;;4989329;28;20050;-86
2022/07/06 07:22:32;;;;;;;5.63;1.42;;;16.50;99.90;;;;;;4972337;28;20045;-88
2022/07/06 07:24:58;;;;;;;5.07;1.00;;;16.50;99.90;;;;;;4971240;28;20050;-84
2022/07/06 07:27:25;;;;;;;4.95;1.00;;;16.50;99.90;;;;;;4990150;28;20399;-84
2022/07/06 07:29:50;;;;;;;5.10;1.00;;;16.50;99.90;;;;;;4987460;28;20110;-84
2022/07/06 07:32:16;;;;;;;3.22;1.10;;;16.40;99.90;;;;;;4957199;28;20530;-84
2022/07/06 07:34:42;;;;;;;3.67;1.05;;;16.40;99.90;;;;;;4990032;28;20049;-84
2022/07/06 07:37:08;;;;;;;4.47;0.98;;;16.40;99.90;;;;;;4970945;28;20486;-84
2022/07/06 07:39:33;;;;;;;6.32;1.05;;;16.50;99.90;;;;;;4987026;28;20038;-87
2022/07/06 07:41:59;;;;;;;4.53;0.80;;;16.60;99.90;;;;;;4988933;28;20447;-87
2022/07/06 07:44:26;;;;;;;4.35;1.00;;;16.70;99.90;;;;;;4987145;28;20034;-86
2022/07/06 07:46:52;;;;;;;6.70;1.00;;;16.80;99.90;;;;;;4990296;28;20041;-86
2022/07/06 07:49:19;;;;;;;5.07;1.13;;;16.90;99.90;;;;;;4972072;28;20042;-86
2022/07/06 07:51:46;;;;;;;5.85;1.10;;;17.00;99.90;;;;;;4955892;28;20120;-83
2022/07/06 07:54:12;;;;;;;5.90;1.10;;;17.10;99.90;;;;;;4989698;28;20553;-85
2022/07/06 07:56:40;;;;;;;6.57;1.40;;;17.10;99.90;;;;;;4989812;28;20109;-85
2022/07/06 07:59:06;;;;;;;5.35;0.88;;;17.20;99.90;;;;;;4987568;28;20066;-85
2022/07/06 08:01:32;;;;;;;3.33;1.00;;;17.20;99.90;;;;;;4974327;28;20046;-86
2022/07/06 08:03:58;;;;;;;6.13;0.90;;;17.30;99.90;;;;;;4972275;28;20046;-84
2022/07/06 08:06:23;;;;;;;4.00;0.95;;;17.40;99.90;;;;;;4990293;28;20039;-87
2022/07/06 08:08:49;;;;;;;3.67;0.88;;;17.50;99.90;;;;;;4988447;28;20038;-87
2022/07/06 08:11:15;;;;;;;5.18;1.00;;;17.60;99.90;;;;;;4990439;28;20042;-85
2022/07/06 08:13:40;;;;;;;3.35;0.93;;;17.70;99.90;;;;;;4988706;28;20049;-86
2022/07/06 08:16:06;;;;;;;5.00;0.95;;;17.80;99.90;;;;;;4989711;28;20506;-86
2022/07/06 08:18:31;;;;;;;4.28;0.90;;;17.90;99.90;;;;;;4978423;28;20038;-86
2022/07/06 08:20:57;;;;;;;5.60;1.15;;;18.00;99.90;;;;;;4986258;28;20427;-86
2022/07/06 08:23:23;;;;;;;4.13;0.90;;;18.00;99.90;;;;;;4991036;28;20050;-88
2022/07/06 08:25:49;;;;;;;4.00;0.70;;;18.10;99.90;;;;;;4988189;28;20034;-87
2022/07/06 08:28:14;;;;;;;3.42;0.70;;;18.10;99.90;;;;;;4989696;28;20437;-87
2022/07/06 08:30:40;;;;;;;6.00;0.90;;;18.10;99.90;;;;;;4987895;28;20042;-89
2022/07/06 08:33:06;;;;;;;4.63;0.90;;;18.10;99.90;;;;;;5007165;28;20057;-87
2022/07/06 08:35:31;;;;;;;2.33;0.70;;;18.10;99.90;;;;;;4993007;28;20050;-88
2022/07/06 08:37:57;;;;;;;5.15;0.98;;;18.10;99.90;;;;;;4992150;28;20050;-87
2022/07/06 08:40:23;;;;;;;3.97;0.85;;;18.00;99.90;;;;;;4991738;28;20125;-87
2022/07/06 08:42:56;;;;;;;2.42;0.70;;;18.00;99.90;;;;;;5009173;28;20072;-87
2022/07/06 08:45:24;;;;;;;4.00;0.75;;;17.90;99.90;;;;;;4991429;28;20053;-87
2022/07/06 08:47:50;;;;;;;4.10;0.90;;;17.90;99.90;;;;;;4973891;28;20050;-88
2022/07/06 08:50:16;;;;;;;1.33;0.60;;;17.90;99.90;;;;;;4990828;28;20046;-88
2022/07/06 08:52:42;;;;;;;3.97;1.05;;;18.00;99.90;;;;;;4992620;28;20042;-87
2022/07/06 08:55:09;;;;;;;5.13;0.80;;;18.10;99.90;;;;;;4974681;28;20184;-87
2022/07/06 08:57:35;;;;;;;5.10;0.85;;;18.20;99.90;;;;;;5009826;28;20046;-86
2022/07/06 09:00:01;;;;;;;4.05;0.80;;;18.10;99.90;;;;;;5008202;28;20044;-87
2022/07/06 09:02:27;;;;;;;4.07;0.73;;;18.20;99.90;;;;;;5008044;28;20046;-86
2022/07/06 09:04:57;;;;;;;3.80;0.85;;;18.10;99.90;;;;;;4991676;28;20052;-88
2022/07/06 09:07:23;;;;;;;4.88;0.80;;;18.10;99.90;;;;;;4991771;28;20038;-88
2022/07/06 09:09:49;;;;;;;5.10;0.60;;;18.00;99.90;;;;;;4974990;28;20123;-87
2022/07/06 09:12:15;;;;;;;4.95;0.90;;;18.10;99.90;;;;;;4990488;28;20044;-87
2022/07/06 09:14:40;;;;;;;4.10;0.70;;;18.20;99.90;;;;;;4976211;28;20390;-87
2022/07/06 09:17:06;;;;;;;3.60;0.73;;;18.20;99.90;;;;;;4991287;28;20077;-88
2022/07/06 09:19:34;;;;;;;3.25;0.70;;;18.20;99.90;;;;;;4990399;28;20050;-87
2022/07/06 09:22:00;;;;;;;4.18;0.98;;;18.30;99.90;;;;;;4989653;28;20042;-87
2022/07/06 09:24:27;;;;;;;3.97;0.75;;;18.40;99.90;;;;;;4992069;28;20593;-87
2022/07/06 09:26:55;;;;;;;3.33;0.70;;;18.50;99.90;;;;;;5007727;28;20038;-87
2022/07/06 09:29:29;;;;;;;2.13;0.68;;;18.50;99.90;;;;;;4992402;28;20426;-85
2022/07/06 09:32:03;;;;;;;1.70;0.43;;;18.50;99.90;;;;;;5006084;28;20085;-87
2022/07/06 09:34:46;;;;;;;4.93;0.68;;;18.50;99.90;;;;;;4990537;28;20053;-88
2022/07/06 09:37:13;;;;;;;3.88;0.70;;;18.50;99.90;;;;;;4991994;28;20395;-87
2022/07/06 09:39:39;;;;;;;3.13;0.60;;;18.60;99.90;;;;;;5008439;28;20042;-87
2022/07/06 09:42:09;;;;;;;3.08;0.63;;;18.70;99.90;;;;;;4991046;28;20743;-87
2022/07/06 09:44:37;;;;;;;2.60;0.60;;;18.70;99.90;;;;;;4991124;28;20046;-87
2022/07/06 09:47:05;;;;;;;3.00;0.65;;;18.90;99.90;;;;;;4990026;28;20467;-86
2022/07/06 09:49:31;;;;;;;3.00;0.50;;;18.90;99.90;;;;;;4991218;28;20034;-87
2022/07/06 09:52:01;;;;;;;2.22;0.65;;;19.00;99.90;;;;;;4990599;28;20402;-87
2022/07/06 09:54:27;;;;;;;2.35;0.43;;;19.00;99.90;;;;;;5007665;28;20056;-86
2022/07/06 09:56:54;;;;;;;1.75;0.45;;;19.10;99.90;;;;;;4990833;28;20047;-87
2022/07/06 09:59:22;;;;;;;3.42;0.60;;;19.10;99.90;;;;;;5006735;28;20044;-88
2022/07/06 10:01:51;;;;;;;1.83;0.57;;;19.10;99.90;;;;;;4975004;28;20133;-87
2022/07/06 10:04:19;;;;;;;3.08;0.50;;;19.10;99.90;;;;;;4990923;28;20046;-86
2022/07/06 10:06:46;;;;;;;1.88;0.60;;;19.20;99.90;;;;;;5007748;28;20372;-88
2022/07/06 10:09:12;;;;;;;3.85;0.60;;;19.30;99.90;;;;;;4991123;28;20092;-88
2022/07/06 10:11:40;;;;;;;2.42;0.50;;;19.40;99.90;;;;;;5008257;28;20045;-88
2022/07/06 10:14:07;;;;;;;3.88;0.50;;;19.50;99.90;;;;;;4990799;28;20046;-90
2022/07/06 10:16:38;;;;;;;2.30;0.60;;;19.70;99.90;;;;;;4974214;28;20053;-88
2022/07/06 10:19:06;;;;;;;4.28;0.70;;;19.60;99.90;;;;;;4989717;28;20122;-88
2022/07/06 10:21:33;;;;;;;1.23;0.50;;;19.60;99.90;;;;;;5008707;28;20045;-89
2022/07/06 10:24:00;;;;;;;2.33;0.65;;;19.50;99.90;;;;;;5010025;28;20082;-88
2022/07/06 10:26:26;;;;;;;3.90;0.50;;;19.50;99.90;;;;;;5008976;28;20125;-88
2022/07/06 10:28:52;;;;;;;2.38;0.60;;;19.50;99.90;;;;;;4994137;28;20081;-88
2022/07/06 10:31:20;;;;;;;3.47;0.70;;;19.50;99.90;;;;;;4994409;28;20183;-85
2022/07/06 10:33:47;;;;;;;2.45;0.57;;;19.50;99.90;;;;;;4977401;28;20049;-85
2022/07/06 10:36:13;;;;;;;2.50;0.70;;;19.60;99.90;;;;;;5010340;28;20156;-90
2022/07/06 10:38:39;;;;;;;4.55;0.90;;;19.60;99.90;;;;;;5012088;28;20529;-89
2022/07/06 10:41:06;;;;;;;3.33;0.70;;;19.60;99.90;;;;;;5010893;28;20045;-88
2022/07/06 10:43:37;;;;;;;4.53;0.90;;;19.70;99.90;;;;;;4994658;28;20363;-88
2022/07/06 10:46:08;;;;;;;2.83;0.65;;;19.80;99.90;;;;;;4993055;28;20494;-90
2022/07/06 10:48:37;;;;;;;;;;;19.90;99.90;;;;;;4992983;28;20065;-89
2022/07/06 10:51:04;;;;;;;3.20;0.68;;;19.70;99.90;;;;;;4993425;28;20382;-87
2022/07/06 10:53:36;;;;;;;3.28;0.70;;;19.60;99.90;;;;;;4994140;28;20376;-89
2022/07/06 10:56:06;;;;;;;3.60;0.80;;;19.50;99.90;;;;;;4990335;28;20049;-89
2022/07/06 10:58:40;;;;;;;3.67;0.70;;;19.40;99.90;;;;;;5010721;28;20065;-90
2022/07/06 11:01:06;;;;;;;4.50;0.70;;;19.40;99.90;;;;;;4992578;28;20049;-88
2022/07/06 11:03:46;;;;;;;5.15;1.13;;;19.40;99.90;;;;;;4992299;28;20434;-88
2022/07/06 11:06:13;;;;;;;4.20;0.77;;;19.30;99.90;;;;;;4991420;28;20045;-88
2022/07/06 11:08:53;;;;;;;4.82;0.90;;;19.30;99.90;;;;;;4993130;28;20048;-88
2022/07/06 11:11:33;;;;;;;2.97;0.70;;;19.30;99.90;;;;;;5011904;28;20131;-88
2022/07/06 11:14:06;;;;;;;3.38;0.70;;;19.30;99.90;;;;;;5009832;28;20041;-89
2022/07/06 11:16:48;;;;;;;2.95;0.68;;;19.40;99.90;;;;;;4994574;28;20050;-88
2022/07/06 11:19:23;;;;;;;2.95;0.80;;;19.40;99.90;;;;;;4993448;28;20054;-88
2022/07/06 11:21:52;;;;;;;3.47;0.77;;;19.50;99.90;;;;;;4976387;28;20038;-89
2022/07/06 11:24:21;;;;;;;4.00;0.70;;;19.50;99.90;;;;;;4993766;28;20049;-89
2022/07/06 11:26:48;;;;;;;4.65;0.80;;;19.60;99.90;;;;;;5009206;28;20128;-88
2022/07/06 11:29:17;;;;;;;2.88;0.70;;;19.70;99.90;;;;;;5003446;28;20046;-91
2022/07/06 11:31:44;;;;;;;3.65;0.85;;;19.60;99.90;;;;;;5010648;28;20505;-91
2022/07/06 11:34:13;;;;;;;4.00;0.80;;;19.60;99.90;;;;;;4992685;28;20507;-90
2022/07/06 11:36:40;;;;;;;5.20;0.98;;;19.60;99.90;;;;;;5008404;28;20117;-90
2022/07/06 11:39:06;;;;;;;5.40;1.00;;;19.70;99.90;;;;;;4976198;28;20133;-89
2022/07/06 11:41:32;;;;;;;3.80;0.93;;;19.80;99.90;;;;;;4993636;28;20120;-89
2022/07/06 11:43:58;;;;;;;2.97;0.70;;;19.90;99.90;;;;;;5010432;28;20045;-88
2022/07/06 11:46:24;;;;;;;3.22;0.88;;;19.80;99.90;;;;;;5010984;28;20134;-90
2022/07/06 11:48:55;;;;;;;4.47;0.90;;;19.80;99.90;;;;;;5002997;28;20045;-90
2022/07/06 11:51:22;;;;;;;;;;;19.80;99.90;;;;;;4974387;28;20093;-92
2022/07/06 11:53:49;;;;;;;4.07;0.80;;;19.70;99.90;;;;;;4980813;28;19918;-89
2022/07/06 11:56:18;;;;;;;4.13;0.80;;;19.90;99.90;;;;;;4992896;28;20050;-88
2022/07/06 11:58:46;;;;;;;2.85;0.65;;;20.00;99.90;;;;;;4991766;28;20111;-87
2022/07/06 12:01:13;;;;;;;2.92;0.73;;;20.00;99.90;;;;;;4991790;28;20049;-88
2022/07/06 12:03:39;;;;;;;5.35;1.20;;;20.10;99.90;;;;;;4993719;28;20057;-88
2022/07/06 12:06:06;;;;;;;4.57;0.88;;;20.10;99.90;;;;;;4990281;28;20037;-89
2022/07/06 12:08:40;;;;;;;5.75;0.70;;;20.00;99.90;;;;;;4993377;28;20077;-88
2022/07/06 12:11:05;;;;;;;5.60;0.82;;;20.00;99.90;;;;;;5008738;28;20407;-88
2022/07/06 12:13:38;;;;;;;3.75;0.80;;;20.00;99.90;;;;;;4993417;28;20042;-88
2022/07/06 12:16:15;;;;;;;3.25;0.80;;;19.90;99.90;;;;;;5008489;28;20380;-89
2022/07/06 12:18:42;;;;;;;3.60;0.80;;;20.00;99.90;;;;;;5009922;28;20056;-87
2022/07/06 12:21:10;;;;;;;3.53;0.73;;;19.90;99.90;;;;;;4991700;28;20053;-88
2022/07/06 12:23:40;;;;;;;2.60;0.68;;;20.00;99.90;;;;;;5010702;28;20463;-88
2022/07/06 12:26:06;;;;;;;3.22;0.73;;;19.90;99.90;;;;;;4991519;28;20060;-88
2022/07/06 12:28:32;;;;;;;3.50;0.85;;;20.00;99.90;;;;;;5008487;28;20125;-88
2022/07/06 12:30:57;;;;;;;3.28;0.70;;;20.10;99.90;;;;;;5008103;28;20053;-86
2022/07/06 12:33:23;;;;;;;3.25;0.80;;;20.20;99.90;;;;;;5009936;28;20046;-89
2022/07/06 12:35:49;;;;;;;2.47;0.80;;;20.30;99.90;;;;;;4989974;28;20045;-87
2022/07/06 12:38:25;;;;;;;4.03;0.68;;;20.30;99.90;;;;;;4973780;28;20124;-91
2022/07/06 12:40:51;;;;;;;2.47;0.75;;;20.30;99.90;;;;;;4990952;28;20056;-88
2022/07/06 12:43:36;;;;;;;2.25;0.68;;;20.20;99.90;;;;;;4992969;28;20121;-88
2022/07/06 12:46:31;;;;;;;4.80;0.90;;;20.30;99.90;;;;;;4974178;28;20046;-87
2022/07/06 12:48:58;;;;;;;4.38;1.00;;;20.40;99.90;;;;;;4981466;28;20049;-89
2022/07/06 12:51:24;;;;;;;3.42;0.70;;;20.40;99.90;;;;;;5010481;28;20126;-87